VAM | Vabird-VBD

Virtual Vabird! Aerolínea Virtual de habla hispana, desde 2011




 METAR AND TAF INFORMATION
METAR FOR PAJC
ADDS - METARS form results

(0950 UTC 03 July 2020)
Data provider http://aviationweather.gov/metar/data/
 
METAR text: PAJC 030857Z AUTO 00000KT 10SM OVC085 14/12 A3020 RMK AO2 SLP228 T01390122 53005
Conditions at: PAJC (CHIGNIK BAY , AK, US) observed 0857 UTC 03 July 2020
Temperature: 13.9°C (57°F)
Dewpoint: 12.2°C (54°F) [RH = 89%]
Pressure (altimeter): 30.20 inches Hg (1022.8 mb)
[Sea-level pressure: 1022.8 mb]
Winds: calm
Visibility: 10 or more miles (16+ km)
Ceiling: 8500 feet AGL
Clouds: overcast cloud deck at 8500 feet AGL
Weather: automated observation with no human augmentation;
there may or may not be significant weather present at this time

 AIRPORT MAP

 RUNWAY INFORMATION
Runway 02 Runway length 2600 ft Runway width 60 ft
Runway elevation 17 ft Runway displaced threshold 0 ft Runway heading 0
Runway 20 Runway length 2600 ft Runway width 60 ft
Runway elevation 12 ft Runway displaced threshold 0 ft Runway heading 0

 AIRPORT FREQUENCIES

 AIRPORT NEAR NAVIGATION AIDS